Metar Cercanos

 

LEPA - Palma De Mallorc, Spain
Distance from station: ONO 38km
Actualización: Sat, 27-Nov-2021 4:00pm CET
Muy nuboso
Muy nuboso
 Viento del NNO
Viento: NNO 17 km/h
Temperatura: 13°C
Rocío: 8°C
Humedad: 72%
Barómetro: 999 hPa
Clouds: Muy nuboso
Visibility: 10 km
Cloud details: Few Clouds 914 m
Parcialmente nuboso 1219 m
Muy nuboso 2073 m
2021/11/27 15:00 LEPA 271500Z 33009KT 300V360 9999 FEW030TCU SCT040 BKN068 13/08 Q0999 TEMPO 4000 SHRA FEW020CB
LEMH - Mahon/Menorca Is, Spain
Distance from station: ENE 105km
Actualización: Sat, 27-Nov-2021 4:00pm CET
Nearby showers, Few clouds
Nearby showers, Few clouds
 Viento del NO
Viento: NO 17 km/h, Racha: 43 km/h
Temperatura: 13°C
Rocío: 6°C
Humedad: 63%
Barómetro: 999 hPa
Resumen: Nearby Showers
Clouds: Few Clouds
Visibility: 10 km
Cloud details: Parcialmente nuboso 914 m
Few Clouds 1067 m
2021/11/27 15:00 LEMH 271500Z 31009G23KT 270V350 9999 VCSH SCT030 FEW035TCU 13/06 Q0999
 
LEIB - Ibiza/Es Codola, Spain
Distance from station: OSO 165km
Actualización: Sat, 27-Nov-2021 4:00pm CET
Few Clouds
Few Clouds
 Viento del O
Viento: O 30 km/h
Temperatura: 16°C
Rocío: 5°C
Humedad: 48%
Barómetro: 1001 hPa
Clouds: Few Clouds
Visibility: 10 km
Cloud details: Few Clouds 1372 m
2021/11/27 15:00 LEIB 271500Z 27016KT 240V300 9999 FEW045 16/05 Q1001 NOSIG
LEBL - Barcelona Airpor, Spain
Distance from station: NNO 225km
Actualización: Sat, 27-Nov-2021 4:00pm CET
Parcialmente nuboso
Parcialmente nuboso
 Viento del ONO
Viento: ONO 17 km/h
Temperatura: 12°C
Rocío: 3°C
Humedad: 54%
Barómetro: 998 hPa
Clouds: Parcialmente nuboso
Visibility: 10 km
Cloud details: Few Clouds 762 m
Parcialmente nuboso 1524 m
2021/11/27 15:00 LEBL 271500Z 30009KT 9999 FEW025 SCT050 12/03 Q0998 NOSIG
 
LEVC - Valencia (civ/Mi, Spain
Distance from station: NO 188km
Actualización: Sat, 27-Nov-2021 4:00pm CET
Few Clouds
Few Clouds
 Viento del O
Viento: O 17 km/h
Temperatura: 10°C
Sensación frio: 8°C
Rocío: 4°C
Humedad: 67%
Barómetro: 1003 hPa
Clouds: Few Clouds
Visibility: 10 km
Cloud details: Few Clouds 1981 m
2021/11/27 15:00 LEVC 271500Z 27009KT 9999 FEW065 10/04 Q1003 NOSIG
LEGE - Gerona/Costa Bra, Spain
Distance from station: N 276km
Actualización: Sat, 27-Nov-2021 4:00pm CET
Cubierto
Cubierto
 Viento del E
Viento: E 7 km/h
Temperatura: 10°C
Sensación frio: 9°C
Rocío: 4°C
Humedad: 67%
Barómetro: 997 hPa
Clouds: Cubierto
Visibility: 10 km
Cloud details: Few Clouds 457 m
Cubierto 1372 m
2021/11/27 15:00 LEGE 271500Z 09004KT 9999 FEW015 OVC045 10/04 Q0997
 
LEAL - Alicante/El Alte, Spain
Distance from station: OSO 344km
Actualización: Sat, 27-Nov-2021 4:00pm CET
Parcialmente nuboso
Parcialmente nuboso
 Viento del NO
Viento: NO 30 km/h
Temperatura: 15°C
Rocío: 1°C
Humedad: 39%
Barómetro: 1003 hPa
Clouds: Parcialmente nuboso
Visibility: 10 km
Cloud details: Few Clouds 914 m
Parcialmente nuboso 1981 m
2021/11/27 15:00 LEAL 271500Z 31016KT 9999 FEW030 SCT065 15/01 Q1003 NOSIG
LEAM - Almeria Airport, Spain
Distance from station: SSO 56km
Actualización: Sat, 27-Nov-2021 4:00pm CET
Despejado
Despejado
 Viento del OSO
Viento: OSO 26 km/h
Temperatura: 18°C
Rocío: 6°C
Humedad: 46%
Barómetro: 1005 hPa
Resumen: Despejado
Visibility: greater than 10 km
2021/11/27 15:00 LEAM 271500Z 25014KT CAVOK 18/06 Q1005
 
LEZG - Zaragoza (mil/Ci, Spain
Distance from station: NO 431km
Actualización: Sat, 27-Nov-2021 4:00pm CET
Parcialmente nuboso
Parcialmente nuboso
 Viento del NO
Viento: NO 35 km/h
Temperatura: 8°C
Sensación frio: 3°C
Rocío: 2°C
Humedad: 66%
Barómetro: 1005 hPa
Clouds: Parcialmente nuboso
Visibility: 10 km
Cloud details: Few Clouds 762 m
Parcialmente nuboso 1067 m
2021/11/27 15:00 LEZG 271500Z 31019KT 9999 FEW025 SCT035 08/02 Q1005
LEMD - Madrid/Barajas, Spain
Distance from station: ONO 234km
Actualización: Sat, 27-Nov-2021 4:00pm CET
Few Clouds
Few Clouds
 Viento del NO
Viento: NO 17 km/h
Temperatura: 9°C
Sensación frio: 7°C
Rocío: -3°C
Humedad: 43%
Barómetro: 1007 hPa
Clouds: Few Clouds
Visibility: 10 km
Cloud details: Few Clouds 1829 m
2021/11/27 15:00 LEMD 271500Z 31009KT 280V010 9999 FEW060 09/M03 Q1007 NOSIG
 
LEGR - Granada Airport, Spain
Distance from station: OSO 62km
Actualización: Sat, 27-Nov-2021 4:00pm CET
Muy nuboso
Muy nuboso
 Viento del O
Viento: O 13 km/h
Temperatura: 10°C
Sensación frio: 8°C
Rocío: 4°C
Humedad: 67%
Barómetro: 1010 hPa
Clouds: Muy nuboso
Visibility: 10 km
Cloud details: Few Clouds 914 m
Muy nuboso 1372 m
2021/11/27 15:00 LEGR 271500Z 28007KT 250V320 9999 FEW030 BKN045 10/04 Q1010
LEMG - Malaga (civ/Mil), Spain
Distance from station: OSO 227km
Actualización: Sat, 27-Nov-2021 4:00pm CET
Few Clouds
Few Clouds
 Viento del NO
Viento: NO 24 km/h, Racha: 46 km/h
Temperatura: 17°C
Rocío: 4°C
Humedad: 42%
Barómetro: 1009 hPa
Clouds: Few Clouds
Visibility: 10 km
Cloud details: Few Clouds 1554 m
2021/11/27 15:00 LEMG 271500Z 31013G25KT 9999 FEW051 17/04 Q1009 NOSIG
 
LEZL - Sevilla (civ/Mil, Spain
Distance from station: S 318km
Actualización: Sat, 27-Nov-2021 4:00pm CET
Parcialmente nuboso
Parcialmente nuboso
 Viento del ONO
Viento: ONO 20 km/h
Temperatura: 15°C
Rocío: 5°C
Humedad: 51%
Barómetro: 1011 hPa
Clouds: Parcialmente nuboso
Visibility: 10 km
Cloud details: Few Clouds 1219 m
Parcialmente nuboso 1463 m
2021/11/27 15:00 LEZL 271500Z 30011KT 270V330 9999 FEW040 SCT048 15/05 Q1011 NOSIG
LEVT - Vitoria, Spain
Distance from station: NO 226km
Actualización: Sat, 27-Nov-2021 4:00pm CET
Muy nuboso
Muy nuboso
 Viento del O
Viento: O 15 km/h
Temperatura: 3°C
Sensación frio: -1°C
Rocío: 1°C
Humedad: 87%
Barómetro: 1006 hPa
Clouds: Muy nuboso
Visibility: 10 km
Cloud details: Muy nuboso 610 m
2021/11/27 15:00 LEVT 271500Z 28008KT 240V330 9999 BKN020 03/01 Q1006
 
LEBB - Bilbao/Sondica, Spain
Distance from station: NNO 235km
Actualización: Sat, 27-Nov-2021 4:00pm CET
Lluvia débil, Muy nuboso
Lluvia débil, Muy nuboso
 Viento del O
Viento: O 20 km/h
Temperatura: 8°C
Sensación frio: 4°C
Rocío: 4°C
Humedad: 76%
Barómetro: 1007 hPa
Resumen: Lluvia débil
Clouds: Muy nuboso
Visibility: 9 km
Cloud details: Few Clouds 762 m
Few Clouds 914 m
Muy nuboso 1219 m
2021/11/27 15:00 LEBB 271500Z 26011KT 220V310 9000 -RA FEW025 FEW030TCU BKN040 08/04 Q1007 TEMPO 3000 SHRA SCT030TCU
LESO - San Sebastian/Fu, Spain
Distance from station: N 231km
Actualización: Sat, 27-Nov-2021 4:00pm CET
Lluvia débil, Muy nuboso
Lluvia débil, Muy nuboso
 Viento del NNO
Viento: NNO 17 km/h, Racha: 35 km/h
Temperatura: 9°C
Sensación frio: 7°C
Rocío: 5°C
Humedad: 76%
Barómetro: 1005 hPa
Resumen: Lluvia débil
Clouds: Muy nuboso
Visibility: 10 km
Cloud details: Parcialmente nuboso 823 m
Muy nuboso 1067 m
2021/11/27 15:00 LESO 271500Z 33009G19KT 270V020 9999 -RA SCT027 BKN035 09/05 Q1005 RETSRA
 
LEVD - Valladolid(Mil/C, Spain
Distance from station: ONO 239km
Actualización: Sat, 27-Nov-2021 4:00pm CET
Parcialmente nuboso
Parcialmente nuboso
 Viento del NNO
Viento: NNO 37 km/h
Temperatura: 5°C
Sensación frio: -1°C
Rocío: -1°C
Humedad: 66%
Barómetro: 1008 hPa
Clouds: Parcialmente nuboso
Visibility: 10 km
Cloud details: Parcialmente nuboso 853 m
2021/11/27 15:00 LEVD 271500Z 34020KT 9999 SCT028 05/M01 Q1008
LESA - Salamanca (civ/M, Spain
Distance from station: ONO 349km
Actualización: Sat, 27-Nov-2021 4:00pm CET
Parcialmente nuboso
Parcialmente nuboso
 Viento del N
Viento: N 28 km/h
Temperatura: 6°C
Sensación frio: 2°C
Rocío: -3°C
Humedad: 53%
Barómetro: 1010 hPa
Clouds: Parcialmente nuboso
Visibility: 10 km
Cloud details: Parcialmente nuboso 1280 m
2021/11/27 15:00 LESA 271500Z 36015KT 9999 SCT042 06/M03 Q1010
 
LEXJ - Santander/Paraya, Spain
Distance from station: NNO 247km
Actualización: Sat, 27-Nov-2021 4:00pm CET
Muy nuboso
Muy nuboso
 Viento del OSO
Viento: OSO 13 km/h, Racha: 35 km/h
Temperatura: 7°C
Sensación frio: 5°C
Rocío: 4°C
Humedad: 81%
Barómetro: 1008 hPa
Clouds: Muy nuboso
Visibility: 10 km
Cloud details: Few Clouds 488 m
Few Clouds 762 m
Muy nuboso 1402 m
2021/11/27 15:00 LEXJ 271500Z 24007G19KT 170V320 9999 FEW016 FEW025CB BKN046 07/04 Q1008
LEAS - Asturias/Aviles, Spain
Distance from station: NO 214km
Actualización: Sat, 27-Nov-2021 4:00pm CET
Parcialmente nuboso
Parcialmente nuboso
 Viento del NO
Viento: NO 24 km/h, Racha: 48 km/h
Temperatura: 9°C
Sensación frio: 6°C
Rocío: 3°C
Humedad: 66%
Barómetro: 1012 hPa
Clouds: Parcialmente nuboso
Visibility: 10 km
Cloud details: Parcialmente nuboso 792 m
Parcialmente nuboso 1402 m
2021/11/27 15:00 LEAS 271500Z 32013G26KT 250V060 9999 SCT026TCU SCT046 09/03 Q1012 TEMPO 3000 SHRA
 
LECO - La Coruna/Alvedr, Spain
Distance from station: ONO 222km
Actualización: Sat, 27-Nov-2021 4:00pm CET
Parcialmente nuboso
Parcialmente nuboso
 Viento del N
Viento: N 24 km/h
Temperatura: 11°C
Rocío: 1°C
Humedad: 50%
Barómetro: 1017 hPa
Clouds: Parcialmente nuboso
Visibility: 10 km
Cloud details: Parcialmente nuboso 1463 m
2021/11/27 15:00 LECO 271500Z 35013KT 290V060 9999 SCT048 11/01 Q1017 TEMPO 3000 SHRA SCT040TCU
LEVX - Vigo/Peinador, Spain
Distance from station: O 214km
Actualización: Sat, 27-Nov-2021 4:00pm CET
Few Clouds
Few Clouds
 Viento del N
Viento: N 19 km/h
Temperatura: 8°C
Sensación frio: 4°C
Rocío: 4°C
Humedad: 76%
Barómetro: 1017 hPa
Clouds: Few Clouds
Visibility: 10 km
Cloud details: Few Clouds 610 m
2021/11/27 15:00 LEVX 271500Z 36010KT 320V050 9999 FEW020 08/04 Q1017 NOSIG